Naxos, Greece
Current Conditions -  °F | °C
As of 6:50 PM on Sunday 25 Jan 2015 (Local Time) from LGMK Reporting Station
Scattered Clouds Scattered Clouds  
Wind Chill: 59°   Ceiling: Unl
Heat Index: 59°   Visibility: 6mi
Dew Point: 48°   Wind: 16mph
Humidity: 67%   Direction: 170°S
Pressure: 29.83"   Gusts: NA
Location:  37.11°N, 25.38°E
Report Text: LGMK 251550Z 17014KT 9999 SCT015 SCT018TCU 15/09 Q1010
Loading
Personal Weather Stations






























Interactive Weather Map New forecast layout! Learn more

10-Day Weather Forecast

Advertisements
Track Severe Weather on mobile